createdAt,value
2023-03-22T00:00:08.073Z,1.90
2023-03-22T00:01:08.066Z,2.00
2023-03-22T00:02:08.051Z,1.80
2023-03-22T00:03:08.049Z,1.90
2023-03-22T00:04:08.150Z,2.10
2023-03-22T00:05:08.012Z,2.20
2023-03-22T00:06:08.010Z,1.90
2023-03-22T00:07:07.989Z,2.20
2023-03-22T00:08:07.980Z,2.40
2023-03-22T00:09:07.966Z,2.40
2023-03-22T00:10:07.965Z,2.60
2023-03-22T00:11:07.942Z,2.60
2023-03-22T00:12:07.935Z,2.30
2023-03-22T00:13:07.924Z,2.40
2023-03-22T00:14:07.915Z,2.50
2023-03-22T00:15:07.928Z,2.70
2023-03-22T00:16:07.938Z,2.90
2023-03-22T00:17:07.870Z,2.70
2023-03-22T00:18:07.860Z,2.30
2023-03-22T00:19:07.846Z,2.30
2023-03-22T00:20:07.837Z,2.10
2023-03-22T00:21:07.824Z,2.30
2023-03-22T00:22:07.812Z,2.50
2023-03-22T00:23:07.796Z,2.20
2023-03-22T00:24:07.789Z,2.00
2023-03-22T00:25:07.776Z,2.60
2023-03-22T00:26:07.765Z,2.30
2023-03-22T00:27:07.749Z,2.90
2023-03-22T00:28:07.741Z,2.30
2023-03-22T00:29:07.721Z,2.60
2023-03-22T00:30:07.717Z,2.30
2023-03-22T00:31:07.771Z,2.50
2023-03-22T00:32:07.693Z,2.30
2023-03-22T00:33:07.678Z,2.40
2023-03-22T00:34:07.678Z,2.30
2023-03-22T00:35:07.661Z,2.20
2023-03-22T00:36:07.651Z,2.20
2023-03-22T00:37:07.631Z,2.10
2023-03-22T00:38:07.622Z,2.10
2023-03-22T00:39:07.609Z,2.40
2023-03-22T00:40:07.599Z,2.30
2023-03-22T00:41:07.595Z,2.30
2023-03-22T00:42:07.618Z,2.10
2023-03-22T00:43:07.560Z,2.20
2023-03-22T00:44:07.553Z,2.30
2023-03-22T00:45:07.536Z,2.30
2023-03-22T00:46:07.568Z,2.40
2023-03-22T00:47:07.538Z,2.30
2023-03-22T00:48:07.542Z,2.30
2023-03-22T00:49:07.486Z,2.70
2023-03-22T00:50:07.483Z,2.00
2023-03-22T00:51:07.479Z,2.50
2023-03-22T00:52:07.453Z,2.20
2023-03-22T00:53:07.439Z,1.90
2023-03-22T00:54:07.433Z,1.90
2023-03-22T00:55:07.417Z,2.60
2023-03-22T00:56:07.404Z,2.10
2023-03-22T00:57:07.393Z,2.70
2023-03-22T00:58:07.385Z,2.80
2023-03-22T00:59:07.402Z,2.60
2023-03-22T01:00:07.357Z,2.70
2023-03-22T01:01:07.481Z,2.90
2023-03-22T01:02:07.339Z,2.60
2023-03-22T01:03:07.444Z,2.40
2023-03-22T01:04:07.310Z,2.40
2023-03-22T01:05:07.289Z,2.40
2023-03-22T01:06:07.280Z,2.20
2023-03-22T01:07:07.268Z,2.50
2023-03-22T01:08:07.255Z,2.70
2023-03-22T01:09:07.239Z,2.30
2023-03-22T01:10:07.231Z,2.60
2023-03-22T01:11:07.228Z,3.30
2023-03-22T01:12:07.208Z,3.30
2023-03-22T01:13:07.188Z,3.00
2023-03-22T01:14:07.180Z,2.80
2023-03-22T01:15:07.166Z,2.70
2023-03-22T01:16:07.220Z,2.30
2023-03-22T01:17:07.140Z,2.60
2023-03-22T01:18:07.128Z,2.80
2023-03-22T01:19:07.140Z,2.70
2023-03-22T01:20:07.105Z,3.20
2023-03-22T01:21:07.088Z,2.40
2023-03-22T01:22:07.077Z,2.60
2023-03-22T01:23:07.070Z,3.10
2023-03-22T01:24:07.054Z,2.70
2023-03-22T01:25:07.041Z,3.00
2023-03-22T01:26:07.035Z,2.90
2023-03-22T01:27:07.017Z,2.80
2023-03-22T01:28:07.009Z,3.20
2023-03-22T01:29:06.988Z,2.40
2023-03-22T01:30:06.977Z,2.90
2023-03-22T01:31:07.029Z,2.50
2023-03-22T01:32:06.956Z,2.80
2023-03-22T01:33:06.936Z,2.40
2023-03-22T01:34:06.928Z,2.00
2023-03-22T01:35:06.952Z,2.20
2023-03-22T01:36:06.904Z,1.80
2023-03-22T01:37:06.892Z,1.70
2023-03-22T01:38:06.882Z,2.00
2023-03-22T01:39:06.863Z,2.10
2023-03-22T01:40:06.858Z,1.80
2023-03-22T01:41:06.841Z,2.40
2023-03-22T01:42:06.830Z,2.20
2023-03-22T01:43:06.815Z,2.60
2023-03-22T01:44:06.811Z,2.00
2023-03-22T01:45:06.788Z,2.30
2023-03-22T01:46:06.809Z,2.30
2023-03-22T01:47:06.763Z,1.80
2023-03-22T01:48:06.796Z,2.10
2023-03-22T01:49:06.786Z,2.20
2023-03-22T01:50:06.728Z,2.00
2023-03-22T01:51:06.735Z,2.30
2023-03-22T01:52:06.702Z,1.90
2023-03-22T01:53:06.691Z,2.20
2023-03-22T01:54:06.685Z,1.80
2023-03-22T01:55:06.676Z,1.80
2023-03-22T01:56:06.656Z,2.30
2023-03-22T01:57:06.638Z,1.90
2023-03-22T01:58:06.634Z,1.90
2023-03-22T01:59:06.611Z,2.10
2023-03-22T02:00:06.600Z,1.80
2023-03-22T02:01:06.681Z,2.10
2023-03-22T02:02:06.576Z,2.20
2023-03-22T02:03:06.628Z,2.30
2023-03-22T02:04:06.548Z,2.20
2023-03-22T02:05:06.540Z,2.30
2023-03-22T02:06:06.523Z,2.00
2023-03-22T02:07:06.530Z,1.90
2023-03-22T02:08:06.504Z,1.80
2023-03-22T02:09:06.489Z,2.40
2023-03-22T02:10:06.471Z,1.80
2023-03-22T02:11:06.461Z,1.60
2023-03-22T02:12:06.449Z,2.00
2023-03-22T02:13:06.432Z,2.00
2023-03-22T02:14:06.422Z,1.70
2023-03-22T02:15:06.408Z,2.10
2023-03-22T02:16:06.480Z,2.10
2023-03-22T02:17:06.387Z,2.30
2023-03-22T02:18:06.379Z,2.10
2023-03-22T02:19:06.354Z,2.00
2023-03-22T02:20:06.360Z,2.20
2023-03-22T02:21:06.322Z,1.90
2023-03-22T02:22:06.314Z,2.60
2023-03-22T02:23:06.336Z,2.00
2023-03-22T02:24:06.287Z,2.20
2023-03-22T02:25:06.272Z,2.20
2023-03-22T02:26:06.260Z,2.70
2023-03-22T02:27:06.245Z,2.30
2023-03-22T02:28:06.238Z,2.60
2023-03-22T02:29:06.218Z,2.40
2023-03-22T02:30:06.210Z,2.70
2023-03-22T02:31:06.217Z,3.40
2023-03-22T02:32:06.188Z,2.60
2023-03-22T02:33:06.165Z,2.40
2023-03-22T02:34:06.155Z,2.60
2023-03-22T02:35:06.180Z,2.60
2023-03-22T02:36:06.130Z,2.70
2023-03-22T02:37:06.112Z,2.60
2023-03-22T02:38:06.110Z,2.50
2023-03-22T02:39:06.108Z,2.60
2023-03-22T02:40:06.077Z,2.60
2023-03-22T02:41:06.061Z,2.80
2023-03-22T02:42:06.052Z,2.40
2023-03-22T02:43:06.038Z,2.70
2023-03-22T02:44:06.037Z,2.50
2023-03-22T02:45:06.009Z,2.30
2023-03-22T02:46:06.010Z,2.30
2023-03-22T02:47:05.979Z,2.40
2023-03-22T02:48:06.026Z,2.80
2023-03-22T02:49:05.955Z,2.90
2023-03-22T02:50:05.944Z,2.60
2023-03-22T02:51:05.927Z,2.70
2023-03-22T02:52:05.920Z,2.20
2023-03-22T02:53:05.905Z,2.30
2023-03-22T02:54:05.894Z,2.30
2023-03-22T02:55:05.895Z,2.30
2023-03-22T02:56:05.864Z,1.80
2023-03-22T02:57:05.849Z,2.00
2023-03-22T02:58:05.839Z,2.20
2023-03-22T02:59:05.838Z,2.10
2023-03-22T03:00:05.813Z,1.80
2023-03-22T03:01:05.957Z,1.90
2023-03-22T03:02:05.836Z,2.00
2023-03-22T03:03:05.776Z,2.10
2023-03-22T03:04:05.771Z,2.20
2023-03-22T03:05:05.739Z,1.90
2023-03-22T03:06:05.730Z,1.70
2023-03-22T03:07:05.713Z,1.90
2023-03-22T03:08:05.702Z,2.20
2023-03-22T03:09:05.685Z,2.30
2023-03-22T03:10:05.681Z,1.80
2023-03-22T03:11:05.701Z,2.20
2023-03-22T03:12:05.649Z,1.50
2023-03-22T03:13:05.645Z,1.80
2023-03-22T03:14:05.621Z,1.70
2023-03-22T03:15:05.604Z,2.00
2023-03-22T03:16:05.635Z,2.00
2023-03-22T03:17:05.577Z,2.10
2023-03-22T03:18:05.568Z,1.90
2023-03-22T03:19:05.550Z,2.10
2023-03-22T03:20:05.550Z,1.80
2023-03-22T03:21:05.523Z,1.90
2023-03-22T03:22:05.515Z,2.10
2023-03-22T03:23:05.505Z,1.80
2023-03-22T03:24:05.488Z,1.90
2023-03-22T03:25:05.469Z,2.20
2023-03-22T03:26:05.458Z,1.70
2023-03-22T03:27:05.470Z,1.60
2023-03-22T03:28:05.432Z,1.80
2023-03-22T03:29:05.415Z,1.70
2023-03-22T03:30:05.422Z,1.80
2023-03-22T03:31:05.398Z,1.80
2023-03-22T03:32:05.378Z,2.10
2023-03-22T03:33:05.366Z,1.70
2023-03-22T03:34:05.350Z,1.80
2023-03-22T03:35:05.348Z,1.80
2023-03-22T03:36:05.322Z,1.60
2023-03-22T03:37:05.308Z,1.80
2023-03-22T03:38:05.297Z,1.60
2023-03-22T03:39:05.279Z,1.80
2023-03-22T03:40:05.293Z,1.80
2023-03-22T03:41:05.251Z,1.60
2023-03-22T03:42:05.243Z,1.60
2023-03-22T03:43:05.257Z,1.70
2023-03-22T03:44:05.215Z,2.00
2023-03-22T03:45:05.204Z,1.60
2023-03-22T03:46:05.245Z,2.00
2023-03-22T03:47:05.175Z,2.00
2023-03-22T03:48:05.274Z,1.60
2023-03-22T03:49:05.152Z,1.70
2023-03-22T03:50:05.130Z,1.60
2023-03-22T03:51:05.121Z,1.90
2023-03-22T03:52:05.109Z,2.00
2023-03-22T03:53:05.088Z,1.60
2023-03-22T03:54:05.082Z,1.80
2023-03-22T03:55:05.082Z,1.90
2023-03-22T03:56:05.050Z,1.90
2023-03-22T03:57:05.036Z,1.70
2023-03-22T03:58:05.018Z,1.90
2023-03-22T03:59:05.029Z,2.10
2023-03-22T04:00:05.006Z,2.10
2023-03-22T04:01:04.981Z,1.80
2023-03-22T04:02:04.973Z,2.00
2023-03-22T04:03:04.954Z,2.30
2023-03-22T04:04:04.949Z,1.80
2023-03-22T04:05:04.924Z,2.20
2023-03-22T04:06:04.917Z,2.40
2023-03-22T04:07:04.906Z,2.40
2023-03-22T04:08:04.881Z,1.90
2023-03-22T04:09:04.871Z,1.90
2023-03-22T04:10:04.852Z,2.10
2023-03-22T04:11:04.841Z,1.80
2023-03-22T04:12:04.828Z,2.00
2023-03-22T04:13:04.814Z,2.10
2023-03-22T04:14:04.803Z,2.10
2023-03-22T04:15:04.821Z,2.20
2023-03-22T04:16:04.771Z,2.00
2023-03-22T04:17:04.771Z,1.90
2023-03-22T04:18:04.744Z,1.90
2023-03-22T04:19:04.732Z,2.10
2023-03-22T04:20:05.890Z,1.90
2023-03-22T04:21:04.702Z,2.00
2023-03-22T04:22:04.688Z,1.80
2023-03-22T04:23:04.679Z,2.40
2023-03-22T04:24:04.671Z,1.50
2023-03-22T04:25:04.647Z,1.50
2023-03-22T04:26:04.631Z,1.60
2023-03-22T04:27:04.619Z,2.00
2023-03-22T04:28:04.601Z,1.70
2023-03-22T04:29:04.589Z,1.40
2023-03-22T04:30:04.572Z,1.70
2023-03-22T04:31:04.692Z,1.80
2023-03-22T04:32:04.549Z,1.60
2023-03-22T04:33:04.535Z,1.60
2023-03-22T04:34:04.520Z,1.60
2023-03-22T04:35:04.503Z,1.50
2023-03-22T04:36:04.693Z,1.60
2023-03-22T04:37:04.490Z,1.60
2023-03-22T04:38:04.460Z,1.30
2023-03-22T04:39:04.448Z,1.50
2023-03-22T04:40:04.430Z,1.90
2023-03-22T04:41:04.417Z,1.80
2023-03-22T04:42:04.404Z,1.50
2023-03-22T04:43:04.396Z,1.90
2023-03-22T04:44:04.384Z,1.60
2023-03-22T04:45:04.362Z,1.90
2023-03-22T04:46:04.433Z,2.00
2023-03-22T04:47:04.357Z,1.70
2023-03-22T04:48:04.353Z,2.20
2023-03-22T04:49:04.306Z,2.10
2023-03-22T04:50:04.288Z,2.40
2023-03-22T04:51:04.380Z,2.40
2023-03-22T04:52:04.263Z,2.10
2023-03-22T04:53:04.261Z,1.70
2023-03-22T04:54:04.233Z,1.70
2023-03-22T04:55:04.220Z,2.20
2023-03-22T04:56:04.224Z,1.80
2023-03-22T04:58:04.211Z,2.30
2023-03-22T04:59:04.161Z,2.00
2023-03-22T05:00:04.152Z,1.70
2023-03-22T05:01:04.133Z,1.90
2023-03-22T05:02:04.121Z,1.80
2023-03-22T05:03:04.207Z,1.70
2023-03-22T05:04:04.099Z,2.20
2023-03-22T05:05:04.078Z,2.00
2023-03-22T05:06:04.064Z,2.30
2023-03-22T05:07:04.052Z,1.70
2023-03-22T05:08:04.038Z,2.40
2023-03-22T05:09:04.019Z,2.00
2023-03-22T05:10:04.010Z,2.10
2023-03-22T05:11:03.992Z,2.40
2023-03-22T05:12:03.978Z,2.30
2023-03-22T05:13:03.960Z,2.50
2023-03-22T05:14:04.113Z,2.30
2023-03-22T05:15:03.934Z,2.30
2023-03-22T05:16:03.968Z,2.20
2023-03-22T05:17:03.907Z,2.30
2023-03-22T05:18:03.897Z,2.10
2023-03-22T05:19:03.905Z,2.20
2023-03-22T05:20:03.866Z,1.40
2023-03-22T05:21:03.857Z,2.00
2023-03-22T05:22:03.835Z,2.10
2023-03-22T05:23:03.817Z,1.90
2023-03-22T05:24:03.809Z,2.00
2023-03-22T05:25:03.789Z,2.00
2023-03-22T05:26:03.776Z,2.20
2023-03-22T05:27:03.868Z,2.10
2023-03-22T05:28:03.756Z,2.00
2023-03-22T05:29:03.730Z,2.20
2023-03-22T05:30:03.721Z,2.00
2023-03-22T05:31:03.795Z,1.90
2023-03-22T05:32:03.694Z,2.50
2023-03-22T05:33:03.673Z,1.90
2023-03-22T05:34:03.662Z,2.30
2023-03-22T05:35:03.672Z,2.10
2023-03-22T05:36:03.639Z,1.90
2023-03-22T05:37:03.617Z,2.20
2023-03-22T05:38:03.610Z,2.30
2023-03-22T05:39:03.590Z,2.40
2023-03-22T05:40:03.581Z,2.00
2023-03-22T05:41:03.560Z,1.80
2023-03-22T05:42:03.555Z,1.80
2023-03-22T05:43:03.536Z,1.80
2023-03-22T05:44:03.524Z,2.00
2023-03-22T05:45:03.510Z,1.70
2023-03-22T05:46:03.495Z,2.10
2023-03-22T05:47:03.521Z,2.20
2023-03-22T05:48:03.534Z,2.00
2023-03-22T05:49:03.584Z,2.30
2023-03-22T05:50:03.442Z,2.10
2023-03-22T05:51:03.465Z,1.90
2023-03-22T05:52:03.409Z,1.90
2023-03-22T05:53:03.410Z,2.00
2023-03-22T05:54:03.379Z,2.30
2023-03-22T05:55:03.363Z,1.90
2023-03-22T05:56:03.351Z,1.90
2023-03-22T05:57:03.333Z,1.90
2023-03-22T05:58:03.324Z,1.80
2023-03-22T05:59:03.309Z,1.80
2023-03-22T06:00:03.301Z,2.30
2023-03-22T06:01:03.285Z,1.90
2023-03-22T06:02:03.309Z,1.80
2023-03-22T06:03:03.424Z,1.90
2023-03-22T06:04:03.240Z,2.30
2023-03-22T06:05:03.243Z,1.70
2023-03-22T06:06:03.220Z,2.60
2023-03-22T06:07:03.253Z,2.00
2023-03-22T06:08:03.182Z,2.10
2023-03-22T06:09:15.911Z,2.10
2023-03-22T06:10:03.154Z,2.10
2023-03-22T06:11:03.135Z,2.00
2023-03-22T06:12:03.125Z,1.70
2023-03-22T06:13:03.170Z,2.00
2023-03-22T06:14:03.095Z,2.10
2023-03-22T06:15:03.077Z,1.80
2023-03-22T06:16:03.152Z,2.20
2023-03-22T06:17:03.054Z,2.40
2023-03-22T06:18:03.044Z,2.20
2023-03-22T06:19:03.036Z,2.40
2023-03-22T06:20:03.012Z,1.60
2023-03-22T06:21:02.998Z,2.30
2023-03-22T06:22:02.980Z,2.10
2023-03-22T06:23:03.072Z,1.90
2023-03-22T06:24:02.953Z,2.40
2023-03-22T06:25:02.937Z,2.20
2023-03-22T06:26:02.926Z,2.40
2023-03-22T06:27:02.908Z,1.90
2023-03-22T06:28:02.898Z,2.10
2023-03-22T06:29:02.876Z,2.60
2023-03-22T06:30:02.865Z,2.70
2023-03-22T06:31:02.904Z,1.70
2023-03-22T06:32:02.836Z,2.20
2023-03-22T06:33:02.815Z,1.80
2023-03-22T06:34:02.807Z,2.50
2023-03-22T06:35:02.786Z,2.20
2023-03-22T06:36:02.779Z,2.50
2023-03-22T06:37:02.757Z,2.50
2023-03-22T06:38:02.750Z,2.00
2023-03-22T06:39:02.763Z,2.10
2023-03-22T06:40:02.720Z,2.10
2023-03-22T06:41:02.700Z,2.30
2023-03-22T06:42:02.693Z,1.80
2023-03-22T06:43:05.644Z,2.20
2023-03-22T06:44:02.664Z,2.60
2023-03-22T06:45:02.643Z,2.50
2023-03-22T06:46:02.671Z,2.50
2023-03-22T06:47:02.615Z,2.10
2023-03-22T06:48:02.642Z,2.30
2023-03-22T06:49:02.597Z,2.50
2023-03-22T06:50:02.575Z,2.40
2023-03-22T06:51:02.558Z,2.70
2023-03-22T06:52:02.551Z,2.80
2023-03-22T06:53:02.533Z,2.40
2023-03-22T06:54:02.521Z,2.30
2023-03-22T06:55:02.528Z,2.80
2023-03-22T06:56:02.494Z,3.40
2023-03-22T06:57:02.480Z,3.50
2023-03-22T06:58:02.465Z,3.00
2023-03-22T06:59:02.450Z,3.00
2023-03-22T07:00:02.440Z,2.90
2023-03-22T07:01:02.450Z,2.60
2023-03-22T07:02:02.412Z,2.80
2023-03-22T07:03:02.396Z,3.20
2023-03-22T07:04:02.428Z,3.10
2023-03-22T07:05:02.380Z,3.00
2023-03-22T07:06:02.388Z,2.70
2023-03-22T07:07:02.357Z,3.20
2023-03-22T07:08:02.338Z,3.00
2023-03-22T07:09:02.339Z,2.60
2023-03-22T07:10:02.321Z,2.60
2023-03-22T07:11:02.321Z,2.70
2023-03-22T07:12:02.286Z,2.90
2023-03-22T07:13:02.269Z,3.00
2023-03-22T07:14:02.261Z,3.00
2023-03-22T07:15:02.244Z,2.80
2023-03-22T07:16:02.316Z,3.30
2023-03-22T07:17:02.218Z,3.10
2023-03-22T07:18:02.236Z,3.50
2023-03-22T07:19:02.195Z,3.30
2023-03-22T07:20:02.185Z,3.20
2023-03-22T07:21:02.172Z,3.30
2023-03-22T07:22:02.160Z,3.20
2023-03-22T07:23:02.151Z,2.80
2023-03-22T07:24:02.143Z,3.20
2023-03-22T07:25:02.125Z,3.40
2023-03-22T07:26:02.117Z,3.30
2023-03-22T07:27:02.134Z,3.60
2023-03-22T07:28:02.087Z,3.40
2023-03-22T07:29:02.087Z,2.90
2023-03-22T07:30:02.079Z,3.60
2023-03-22T07:31:02.048Z,3.40
2023-03-22T07:32:02.183Z,3.00
2023-03-22T07:33:02.024Z,3.20
2023-03-22T07:34:02.018Z,3.30
2023-03-22T07:35:02.175Z,3.50
2023-03-22T07:36:02.037Z,3.30
2023-03-22T07:37:01.978Z,2.90
2023-03-22T07:38:01.970Z,3.70
2023-03-22T07:39:01.957Z,3.50
2023-03-22T07:40:01.950Z,3.00
2023-03-22T07:41:01.941Z,3.60
2023-03-22T07:42:01.924Z,3.40
2023-03-22T07:43:01.932Z,3.30
2023-03-22T07:44:16.663Z,3.30
2023-03-22T07:45:01.940Z,3.00
2023-03-22T07:46:01.880Z,3.30
2023-03-22T07:47:01.875Z,3.70
2023-03-22T07:48:01.971Z,3.30
2023-03-22T07:49:01.845Z,3.30
2023-03-22T07:50:01.839Z,3.50
2023-03-22T07:51:01.821Z,3.90
2023-03-22T07:52:01.827Z,3.60
2023-03-22T07:53:01.815Z,3.90
2023-03-22T07:54:01.798Z,3.80
2023-03-22T07:55:01.783Z,3.40
2023-03-22T07:56:01.773Z,3.90
2023-03-22T07:57:01.812Z,3.70
2023-03-22T07:58:01.750Z,3.20
2023-03-22T07:59:01.836Z,3.70
2023-03-22T08:00:01.742Z,3.40
2023-03-22T08:01:01.731Z,3.50
2023-03-22T08:02:01.768Z,3.60
2023-03-22T08:03:01.806Z,3.80
2023-03-22T08:04:01.685Z,3.30
2023-03-22T08:05:01.685Z,3.90
2023-03-22T08:06:01.764Z,3.40
2023-03-22T08:07:01.654Z,3.70
2023-03-22T08:08:01.640Z,4.10
2023-03-22T08:09:01.643Z,3.50
2023-03-22T08:10:01.620Z,3.20
2023-03-22T08:11:01.622Z,3.00
2023-03-22T08:12:01.597Z,3.80
2023-03-22T08:13:01.590Z,2.80
2023-03-22T08:14:01.578Z,3.40
2023-03-22T08:15:01.603Z,3.20
2023-03-22T08:16:01.580Z,3.30
2023-03-22T08:17:01.546Z,3.60
2023-03-22T08:18:01.533Z,3.30
2023-03-22T08:19:01.531Z,3.10
2023-03-22T08:20:01.514Z,3.70
2023-03-22T08:21:01.503Z,3.20
2023-03-22T08:22:01.490Z,3.20
2023-03-22T08:23:01.501Z,3.70
2023-03-22T08:24:01.473Z,3.50
2023-03-22T08:25:01.463Z,3.70
2023-03-22T08:26:01.465Z,3.60
2023-03-22T08:27:01.448Z,3.00
2023-03-22T08:28:01.432Z,3.40
2023-03-22T08:29:01.427Z,3.20
2023-03-22T08:30:01.408Z,3.40
2023-03-22T08:31:01.425Z,3.10
2023-03-22T08:32:01.592Z,3.00
2023-03-22T08:33:01.384Z,3.40
2023-03-22T08:34:01.378Z,3.40
2023-03-22T08:35:01.366Z,3.60
2023-03-22T08:36:01.455Z,2.60
2023-03-22T08:37:01.345Z,2.80
2023-03-22T08:38:01.329Z,3.50
2023-03-22T08:39:01.332Z,3.20
2023-03-22T08:40:01.371Z,3.50
2023-03-22T08:41:01.305Z,3.40
2023-03-22T08:42:01.308Z,3.00
2023-03-22T08:43:01.287Z,3.20
2023-03-22T08:44:01.279Z,3.50
2023-03-22T08:45:01.270Z,3.00
2023-03-22T08:46:01.301Z,3.40
2023-03-22T08:47:02.819Z,3.20
2023-03-22T08:48:01.282Z,3.90
2023-03-22T08:49:01.232Z,3.20
2023-03-22T08:50:01.230Z,3.40
2023-03-22T08:51:01.205Z,3.80
2023-03-22T08:52:01.207Z,2.90
2023-03-22T08:53:01.191Z,2.80
2023-03-22T08:54:01.184Z,3.30
2023-03-22T08:55:01.171Z,2.60
2023-03-22T08:56:01.166Z,2.40
2023-03-22T08:57:01.152Z,3.30
2023-03-22T08:58:01.136Z,2.60
2023-03-22T08:59:01.133Z,3.40
2023-03-22T09:00:01.124Z,2.30
2023-03-22T09:01:01.247Z,2.70
2023-03-22T09:02:01.214Z,2.60
2023-03-22T09:03:01.115Z,2.60
2023-03-22T09:04:01.169Z,2.80
2023-03-22T09:05:01.076Z,2.90
2023-03-22T09:06:01.065Z,2.70
2023-03-22T09:07:01.058Z,2.90
2023-03-22T09:08:06.251Z,2.80
2023-03-22T09:09:01.041Z,2.60
2023-03-22T09:10:01.025Z,3.30
2023-03-22T09:11:01.029Z,2.70
2023-03-22T09:12:01.017Z,3.00
2023-03-22T09:13:01.001Z,2.40
2023-03-22T09:14:00.989Z,2.10
2023-03-22T09:15:00.986Z,2.70
2023-03-22T09:16:01.048Z,2.70
2023-03-22T09:17:00.965Z,2.30
2023-03-22T09:18:00.952Z,2.40
2023-03-22T09:19:00.965Z,2.50
2023-03-22T09:20:12.034Z,2.80
2023-03-22T09:21:00.932Z,2.40
2023-03-22T09:22:00.926Z,2.60
2023-03-22T09:23:00.912Z,2.00
2023-03-22T09:24:00.914Z,2.50
2023-03-22T09:25:00.889Z,2.10
2023-03-22T09:26:00.879Z,2.60
2023-03-22T09:27:00.872Z,2.30
2023-03-22T09:28:00.865Z,2.50
2023-03-22T09:29:00.852Z,2.10
2023-03-22T09:30:00.869Z,2.70
2023-03-22T09:31:01.056Z,2.20
2023-03-22T09:32:00.837Z,2.10
2023-03-22T09:33:00.817Z,2.60
2023-03-22T09:34:00.828Z,1.90
2023-03-22T09:35:00.824Z,2.50
2023-03-22T09:36:00.826Z,2.30
2023-03-22T09:37:00.782Z,2.40
2023-03-22T09:38:00.783Z,2.00
2023-03-22T09:39:00.765Z,1.90
2023-03-22T09:40:00.752Z,2.60
2023-03-22T09:41:00.759Z,1.90
2023-03-22T09:42:00.740Z,2.00
2023-03-22T09:43:00.736Z,2.20
2023-03-22T09:44:00.719Z,2.30
2023-03-22T09:45:00.715Z,2.70
2023-03-22T09:46:00.741Z,2.60
2023-03-22T09:47:00.700Z,2.00
2023-03-22T09:48:00.726Z,1.70
2023-03-22T09:49:00.681Z,2.30
2023-03-22T09:50:00.674Z,2.00
2023-03-22T09:51:00.685Z,2.00
2023-03-22T09:52:00.697Z,2.00
2023-03-22T09:53:00.649Z,1.80
2023-03-22T09:54:00.642Z,2.00
2023-03-22T09:55:00.633Z,2.10
2023-03-22T09:56:00.623Z,1.70
2023-03-22T09:57:00.636Z,1.70
2023-03-22T09:58:00.606Z,2.10
2023-03-22T09:59:00.599Z,2.00
2023-03-22T10:00:00.586Z,1.90
2023-03-22T10:01:00.605Z,1.80
2023-03-22T10:02:00.951Z,1.90
2023-03-22T10:03:00.566Z,1.60
2023-03-22T10:04:00.606Z,1.60
2023-03-22T10:05:00.551Z,1.60
2023-03-22T10:06:00.538Z,1.50
2023-03-22T10:07:00.625Z,1.70
2023-03-22T10:08:00.525Z,1.50
2023-03-22T10:09:00.518Z,1.80
2023-03-22T10:10:00.508Z,1.70
2023-03-22T10:11:00.502Z,1.30
2023-03-22T10:12:00.495Z,1.60
2023-03-22T10:13:00.489Z,1.50
2023-03-22T10:14:00.476Z,1.40
2023-03-22T10:15:00.473Z,1.50
2023-03-22T10:16:00.481Z,1.70
2023-03-22T10:17:00.460Z,1.50
2023-03-22T10:18:00.446Z,1.50
2023-03-22T10:19:00.441Z,1.50
2023-03-22T10:20:00.427Z,1.70
2023-03-22T10:21:00.425Z,1.50
2023-03-22T10:22:00.413Z,2.00
2023-03-22T10:23:00.438Z,1.20
2023-03-22T10:24:00.399Z,1.70
2023-03-22T10:25:00.396Z,1.20
2023-03-22T10:26:00.382Z,1.60
2023-03-22T10:27:00.378Z,1.10
2023-03-22T10:28:00.368Z,1.50
2023-03-22T10:29:02.688Z,1.70
2023-03-22T10:30:00.350Z,1.50
2023-03-22T10:31:00.417Z,1.60
2023-03-22T10:32:00.338Z,1.30
2023-03-22T10:33:00.332Z,1.40
2023-03-22T10:34:00.321Z,1.20
2023-03-22T10:35:00.317Z,1.30
2023-03-22T10:36:00.341Z,1.10
2023-03-22T10:37:00.301Z,1.30
2023-03-22T10:38:00.292Z,1.30
2023-03-22T10:39:00.307Z,1.20
2023-03-22T10:40:00.278Z,1.10
2023-03-22T10:41:00.276Z,1.40
2023-03-22T10:42:00.257Z,1.20
2023-03-22T10:43:00.262Z,1.50
2023-03-22T10:44:00.252Z,1.00
2023-03-22T10:45:00.251Z,1.30
2023-03-22T10:46:00.234Z,1.40
2023-03-22T10:47:00.383Z,1.30
2023-03-22T10:48:00.359Z,1.50
2023-03-22T10:49:00.238Z,1.30
2023-03-22T10:50:00.204Z,1.30
2023-03-22T10:51:00.219Z,1.10
2023-03-22T10:52:00.202Z,1.20
2023-03-22T10:53:00.189Z,1.10
2023-03-22T10:54:00.182Z,1.30
2023-03-22T10:55:03.773Z,1.20
2023-03-22T10:56:00.164Z,1.10
2023-03-22T10:57:00.161Z,1.00
2023-03-22T10:58:00.150Z,1.30
2023-03-22T10:59:00.148Z,1.10
2023-03-22T11:00:00.173Z,1.00
2023-03-22T11:01:00.321Z,1.30
2023-03-22T11:02:00.369Z,1.10
2023-03-22T11:03:00.216Z,0.80
2023-03-22T11:04:00.109Z,0.90
2023-03-22T11:05:00.116Z,1.10
2023-03-22T11:06:00.117Z,1.00
2023-03-22T11:07:00.100Z,0.80
2023-03-22T11:08:00.137Z,1.20
2023-03-22T11:09:00.111Z,1.10
2023-03-22T11:10:00.100Z,1.10
2023-03-22T11:11:00.168Z,1.10
2023-03-22T11:12:00.129Z,0.90
2023-03-22T11:13:00.061Z,0.90
2023-03-22T11:14:00.075Z,1.00
2023-03-22T11:15:00.067Z,0.90
2023-03-22T11:16:00.180Z,0.90
2023-03-22T11:17:00.038Z,1.00
2023-03-22T11:18:00.033Z,1.00
2023-03-22T11:19:00.017Z,0.90
2023-03-22T11:20:00.051Z,1.00
2023-03-22T11:21:00.003Z,0.80
2023-03-22T11:22:00.015Z,1.00
2023-03-22T11:22:59.988Z,1.20
2023-03-22T11:23:59.981Z,1.20
2023-03-22T11:24:59.975Z,1.00
2023-03-22T11:25:59.966Z,1.20
2023-03-22T11:26:59.985Z,1.20
2023-03-22T11:27:59.955Z,1.20
2023-03-22T11:28:59.950Z,0.90
2023-03-22T11:29:59.951Z,1.30
2023-03-22T11:30:59.946Z,1.10
2023-03-22T11:32:00.142Z,1.10
2023-03-22T11:33:00.010Z,1.00
2023-03-22T11:33:59.928Z,1.00
2023-03-22T11:34:59.913Z,1.00
2023-03-22T11:35:59.981Z,1.00
2023-03-22T11:36:59.907Z,0.90
2023-03-22T11:37:59.891Z,0.90
2023-03-22T11:38:59.898Z,1.00
2023-03-22T11:39:59.882Z,0.80
2023-03-22T11:40:59.878Z,0.90
2023-03-22T11:41:59.897Z,0.90
2023-03-22T11:42:59.889Z,1.10
2023-03-22T11:43:59.858Z,0.90
2023-03-22T11:44:59.857Z,1.00
2023-03-22T11:45:59.878Z,1.20
2023-03-22T11:46:59.846Z,0.90
2023-03-22T11:47:59.896Z,1.20
2023-03-22T11:49:01.324Z,0.90
2023-03-22T11:49:59.826Z,0.80
2023-03-22T11:50:59.821Z,1.20
2023-03-22T11:51:59.813Z,1.00
2023-03-22T11:52:59.811Z,0.90
2023-03-22T11:53:59.799Z,1.20
2023-03-22T11:54:59.798Z,1.30
2023-03-22T11:55:59.793Z,1.10
2023-03-22T11:56:59.788Z,1.10
2023-03-22T11:57:59.776Z,1.00
2023-03-22T11:58:59.811Z,1.00
2023-03-22T11:59:59.768Z,1.00
2023-03-22T12:00:59.764Z,1.10
2023-03-22T12:01:59.755Z,0.90
2023-03-22T12:02:59.937Z,1.00
2023-03-22T12:03:59.797Z,1.20
2023-03-22T12:04:59.804Z,1.10
2023-03-22T12:05:59.785Z,1.10
2023-03-22T12:06:59.744Z,1.00
2023-03-22T12:07:59.720Z,1.00
2023-03-22T12:08:59.718Z,1.10
2023-03-22T12:10:00.237Z,0.90
2023-03-22T12:10:59.709Z,0.90
2023-03-22T12:11:59.704Z,1.00
2023-03-22T12:12:59.699Z,0.90
2023-03-22T12:13:59.693Z,1.00
2023-03-22T12:14:59.717Z,1.10
2023-03-22T12:15:59.729Z,1.00
2023-03-22T12:16:59.677Z,1.00
2023-03-22T12:17:59.718Z,1.10
2023-03-22T12:18:59.681Z,0.90
2023-03-22T12:19:59.668Z,1.10
2023-03-22T12:20:59.650Z,0.80
2023-03-22T12:21:59.659Z,1.00
2023-03-22T12:22:59.644Z,1.00
2023-03-22T12:23:59.637Z,0.90
2023-03-22T12:24:59.640Z,0.90
2023-03-22T12:25:59.634Z,0.90
2023-03-22T12:26:59.617Z,0.90
2023-03-22T12:27:59.628Z,1.00
2023-03-22T12:28:59.608Z,1.00
2023-03-22T12:30:59.690Z,0.90
2023-03-22T12:31:59.712Z,1.00
2023-03-22T12:32:59.693Z,1.00
2023-03-22T12:33:59.580Z,0.80
2023-03-22T12:35:16.078Z,1.00
2023-03-22T12:35:59.609Z,1.00
2023-03-22T12:36:59.569Z,0.80
2023-03-22T12:37:59.555Z,1.00
2023-03-22T12:38:59.562Z,1.00
2023-03-22T12:39:59.548Z,0.90
2023-03-22T12:40:59.553Z,0.90
2023-03-22T12:41:59.738Z,0.90
2023-03-22T12:43:00.370Z,1.00
2023-03-22T12:43:59.532Z,0.90
2023-03-22T12:45:05.178Z,0.90
2023-03-22T12:46:59.604Z,1.00
2023-03-22T12:47:59.625Z,0.90
2023-03-22T12:48:59.635Z,1.00
2023-03-22T12:49:59.710Z,0.80
2023-03-22T12:50:59.502Z,0.90
2023-03-22T12:51:59.494Z,0.90
2023-03-22T12:52:59.490Z,0.80
2023-03-22T12:53:59.479Z,0.90
2023-03-22T12:55:59.467Z,1.20
2023-03-22T12:56:59.462Z,0.90
2023-03-22T12:57:59.464Z,0.80
2023-03-22T12:58:59.454Z,0.90
2023-03-22T12:59:59.445Z,0.90
2023-03-22T13:00:59.556Z,0.90
2023-03-22T13:01:59.446Z,1.10
2023-03-22T13:02:59.633Z,1.10
2023-03-22T13:03:59.747Z,1.00
2023-03-22T13:04:59.424Z,0.90
2023-03-22T13:05:59.420Z,1.00
2023-03-22T13:06:59.420Z,0.90
2023-03-22T13:07:59.407Z,0.90
2023-03-22T13:08:59.402Z,1.00
2023-03-22T13:09:59.394Z,1.00
2023-03-22T13:10:59.425Z,0.90
2023-03-22T13:11:59.397Z,0.90
2023-03-22T13:12:59.382Z,0.90
2023-03-22T13:13:59.392Z,0.90
2023-03-22T13:14:59.386Z,1.10
2023-03-22T13:15:59.366Z,1.00
2023-03-22T13:16:59.428Z,1.00
2023-03-22T13:17:59.417Z,0.80
2023-03-22T13:18:59.378Z,0.90
2023-03-22T13:19:59.362Z,0.80
2023-03-22T13:20:59.347Z,0.90
2023-03-22T13:21:59.340Z,0.90